DCS642 EDAZ-EHRD
Flight info
| Callsign | DCS642 |
|---|---|
| Flight time | 1h 1m |
| Altitude | 43000 |
| Route | MAG DCT WRB DCT TINSA DCT HMM DCT RKN |
| Aircraft | C700/M-SBDGHM1RWXY/LB2 |
Departure
| Time | 2026-04-30 14:04 |
|---|---|
| Airport | Schönhagen Airfield (EDAZ) |
Arrival
| Time | 2026-04-30 15:06 |
|---|---|
| Airport | Rotterdam The Hague Airport (EHRD) |
| Time | Latitude | Longitude | Altitude | Speed | Heading |
|---|---|---|---|---|---|
| 2026-04-30 13:40 | 52.20783 | 13.15323 | 140 ft | 0 kts | 257° |
| 2026-04-30 13:59 | 52.20782 | 13.15318 | 141 ft | 3 kts | 263° |
| 2026-04-30 13:59 | 52.20817 | 13.15293 | 140 ft | 11 kts | 346° |
| 2026-04-30 13:59 | 52.20897 | 13.15237 | 142 ft | 10 kts | 310° |
| 2026-04-30 13:59 | 52.20965 | 13.15174 | 142 ft | 13 kts | 351° |
| 2026-04-30 14:00 | 52.21024 | 13.15238 | 138 ft | 13 kts | 83° |
| 2026-04-30 14:00 | 52.20881 | 13.15613 | 139 ft | 24 kts | 127° |
| 2026-04-30 14:00 | 52.20778 | 13.15844 | 140 ft | 26 kts | 127° |
| 2026-04-30 14:01 | 52.20671 | 13.16079 | 143 ft | 27 kts | 126° |
| 2026-04-30 14:01 | 52.20566 | 13.16309 | 141 ft | 22 kts | 126° |
| 2026-04-30 14:01 | 52.20536 | 13.16420 | 141 ft | 8 kts | 83° |
| 2026-04-30 14:01 | 52.20554 | 13.16541 | 143 ft | 14 kts | 76° |
| 2026-04-30 14:02 | 52.20580 | 13.16709 | 150 ft | 16 kts | 76° |
| 2026-04-30 14:02 | 52.20606 | 13.16878 | 153 ft | 13 kts | 74° |
| 2026-04-30 14:02 | 52.20611 | 13.16974 | 155 ft | 9 kts | 112° |
| 2026-04-30 14:02 | 52.20578 | 13.17068 | 159 ft | 4 kts | 122° |
| 2026-04-30 14:03 | 52.20553 | 13.17058 | 158 ft | 4 kts | 255° |
| 2026-04-30 14:03 | 52.20553 | 13.17056 | 158 ft | 0 kts | 256° |
| 2026-04-30 14:03 | 52.20543 | 13.16994 | 156 ft | 35 kts | 256° |
| 2026-04-30 14:03 | 52.20398 | 13.16043 | 140 ft | 133 kts | 253° |
| 2026-04-30 14:04 | 52.20112 | 13.14282 | 647 ft | 178 kts | 257° |
| 2026-04-30 14:04 | 52.19797 | 13.12149 | 1283 ft | 209 kts | 259° |
| 2026-04-30 14:04 | 52.19458 | 13.09655 | 1826 ft | 234 kts | 259° |
| 2026-04-30 14:04 | 52.19092 | 13.07147 | 2411 ft | 217 kts | 258° |
| 2026-04-30 14:05 | 52.18751 | 13.04864 | 3148 ft | 205 kts | 258° |
| 2026-04-30 14:05 | 52.18395 | 13.02455 | 3923 ft | 231 kts | 258° |
| 2026-04-30 14:05 | 52.17999 | 12.99745 | 4724 ft | 261 kts | 258° |
| 2026-04-30 14:05 | 52.17559 | 12.96783 | 5530 ft | 274 kts | 258° |
| 2026-04-30 14:06 | 52.17103 | 12.93730 | 6300 ft | 281 kts | 258° |
| 2026-04-30 14:06 | 52.16164 | 12.87414 | 9118 ft | 294 kts | 258° |
| 2026-04-30 14:07 | 52.15162 | 12.80693 | 11695 ft | 330 kts | 258° |
| 2026-04-30 14:07 | 52.14603 | 12.76972 | 13104 ft | 341 kts | 258° |
| 2026-04-30 14:07 | 52.14028 | 12.73170 | 14607 ft | 351 kts | 258° |
| 2026-04-30 14:08 | 52.12831 | 12.65230 | 17214 ft | 371 kts | 259° |
| 2026-04-30 14:08 | 52.12207 | 12.61104 | 18493 ft | 380 kts | 259° |
| 2026-04-30 14:08 | 52.10916 | 12.52622 | 20598 ft | 396 kts | 259° |
| 2026-04-30 14:09 | 52.10249 | 12.48248 | 21566 ft | 403 kts | 259° |
| 2026-04-30 14:09 | 52.09567 | 12.43799 | 22601 ft | 406 kts | 259° |
| 2026-04-30 14:09 | 52.08175 | 12.34743 | 24381 ft | 419 kts | 259° |
| 2026-04-30 14:10 | 52.07461 | 12.30118 | 25178 ft | 425 kts | 259° |
| 2026-04-30 14:10 | 52.06736 | 12.25441 | 25972 ft | 429 kts | 259° |
| 2026-04-30 14:10 | 52.06009 | 12.20759 | 26749 ft | 434 kts | 259° |
| 2026-04-30 14:10 | 52.05256 | 12.15925 | 27534 ft | 439 kts | 259° |
| 2026-04-30 14:11 | 52.04511 | 12.11153 | 28288 ft | 444 kts | 259° |
| 2026-04-30 14:11 | 52.03746 | 12.06275 | 29042 ft | 448 kts | 259° |
| 2026-04-30 14:11 | 52.02972 | 12.01343 | 29776 ft | 453 kts | 259° |
| 2026-04-30 14:11 | 52.02187 | 11.96363 | 30500 ft | 458 kts | 259° |
| 2026-04-30 14:12 | 52.01390 | 11.91323 | 31114 ft | 462 kts | 259° |
| 2026-04-30 14:12 | 52.00585 | 11.86252 | 31731 ft | 466 kts | 259° |
| 2026-04-30 14:12 | 51.99773 | 11.81141 | 32294 ft | 470 kts | 259° |
| 2026-04-30 14:12 | 51.99230 | 11.77741 | 32737 ft | 470 kts | 258° |
| 2026-04-30 14:13 | 51.98080 | 11.70948 | 33510 ft | 475 kts | 257° |
| 2026-04-30 14:13 | 51.97173 | 11.65794 | 34207 ft | 473 kts | 257° |
| 2026-04-30 14:13 | 51.96296 | 11.60664 | 34900 ft | 471 kts | 258° |
| 2026-04-30 14:13 | 51.95439 | 11.55556 | 35543 ft | 468 kts | 258° |
| 2026-04-30 14:14 | 51.94571 | 11.50483 | 36149 ft | 466 kts | 258° |
| 2026-04-30 14:14 | 51.93694 | 11.45441 | 36749 ft | 464 kts | 258° |
| 2026-04-30 14:14 | 51.92826 | 11.40426 | 37304 ft | 461 kts | 258° |
| 2026-04-30 14:14 | 51.91966 | 11.35438 | 37835 ft | 459 kts | 258° |
| 2026-04-30 14:15 | 51.91118 | 11.30540 | 38323 ft | 457 kts | 258° |
| 2026-04-30 14:15 | 51.90257 | 11.25602 | 38772 ft | 454 kts | 258° |
| 2026-04-30 14:15 | 51.89397 | 11.20692 | 39239 ft | 451 kts | 258° |
| 2026-04-30 14:15 | 51.88546 | 11.15823 | 39520 ft | 450 kts | 258° |
| 2026-04-30 14:16 | 51.87692 | 11.10949 | 39785 ft | 450 kts | 258° |
| 2026-04-30 14:16 | 51.86836 | 11.06089 | 40052 ft | 449 kts | 258° |
| 2026-04-30 14:16 | 51.85978 | 11.01232 | 40319 ft | 449 kts | 258° |
| 2026-04-30 14:16 | 51.85126 | 10.96418 | 40577 ft | 448 kts | 257° |
| 2026-04-30 14:17 | 51.84260 | 10.91535 | 40831 ft | 448 kts | 257° |
| 2026-04-30 14:17 | 51.83411 | 10.86763 | 41084 ft | 448 kts | 257° |
| 2026-04-30 14:17 | 51.82549 | 10.81932 | 41347 ft | 447 kts | 257° |
| 2026-04-30 14:17 | 51.81685 | 10.77104 | 41598 ft | 447 kts | 257° |
| 2026-04-30 14:18 | 51.80822 | 10.72290 | 41831 ft | 446 kts | 257° |
| 2026-04-30 14:18 | 51.79956 | 10.67477 | 42107 ft | 445 kts | 257° |
| 2026-04-30 14:18 | 51.78225 | 10.57890 | 42585 ft | 444 kts | 256° |
| 2026-04-30 14:19 | 51.76489 | 10.48325 | 43041 ft | 443 kts | 256° |
| 2026-04-30 14:19 | 51.75620 | 10.43556 | 43269 ft | 443 kts | 256° |
| 2026-04-30 14:19 | 51.74749 | 10.38791 | 43447 ft | 444 kts | 256° |
| 2026-04-30 14:20 | 51.73871 | 10.33991 | 43435 ft | 449 kts | 256° |
| 2026-04-30 14:20 | 51.71168 | 10.19314 | 43436 ft | 461 kts | 256° |
| 2026-04-30 14:21 | 51.69329 | 10.09394 | 43444 ft | 469 kts | 256° |
| 2026-04-30 14:22 | 51.66468 | 9.94062 | 43441 ft | 480 kts | 255° |
| 2026-04-30 14:22 | 51.63554 | 9.78582 | 43442 ft | 486 kts | 255° |
| 2026-04-30 14:23 | 51.59634 | 9.57952 | 43422 ft | 478 kts | 255° |
| 2026-04-30 14:24 | 51.56698 | 9.42644 | 43421 ft | 479 kts | 255° |
| 2026-04-30 14:25 | 51.52724 | 9.22120 | 43420 ft | 483 kts | 255° |
| 2026-04-30 14:26 | 51.50641 | 9.06338 | 43412 ft | 477 kts | 272° |
| 2026-04-30 14:27 | 51.50835 | 8.90463 | 43424 ft | 473 kts | 273° |
| 2026-04-30 14:27 | 51.50956 | 8.79933 | 43423 ft | 472 kts | 273° |
| 2026-04-30 14:28 | 51.51119 | 8.64097 | 43424 ft | 474 kts | 274° |
| 2026-04-30 14:28 | 51.51219 | 8.53490 | 43423 ft | 476 kts | 273° |
| 2026-04-30 14:29 | 51.51374 | 8.33958 | 43404 ft | 478 kts | 273° |
| 2026-04-30 14:30 | 51.52349 | 8.16426 | 42551 ft | 473 kts | 289° |
| 2026-04-30 14:31 | 51.55087 | 8.07043 | 41328 ft | 457 kts | 306° |
| 2026-04-30 14:31 | 51.59168 | 7.99610 | 40160 ft | 439 kts | 322° |
| 2026-04-30 14:31 | 51.61593 | 7.96699 | 39588 ft | 432 kts | 329° |
| 2026-04-30 14:32 | 51.66594 | 7.91378 | 38402 ft | 428 kts | 330° |
| 2026-04-30 14:32 | 51.69056 | 7.88728 | 37839 ft | 430 kts | 330° |
| 2026-04-30 14:32 | 51.71567 | 7.86039 | 37270 ft | 438 kts | 330° |
| 2026-04-30 14:33 | 51.74097 | 7.83332 | 36699 ft | 447 kts | 329° |
| 2026-04-30 14:33 | 51.79377 | 7.77643 | 35480 ft | 456 kts | 329° |
| 2026-04-30 14:33 | 51.81998 | 7.74748 | 34887 ft | 458 kts | 326° |
| 2026-04-30 14:34 | 51.84393 | 7.71300 | 34269 ft | 464 kts | 316° |
| 2026-04-30 14:34 | 51.86449 | 7.67263 | 33640 ft | 467 kts | 308° |
| 2026-04-30 14:34 | 51.88090 | 7.62790 | 33030 ft | 470 kts | 298° |
| 2026-04-30 14:34 | 51.89506 | 7.58009 | 32410 ft | 472 kts | 298° |
| 2026-04-30 14:35 | 51.91892 | 7.49944 | 31363 ft | 476 kts | 298° |
| 2026-04-30 14:35 | 51.93819 | 7.43442 | 30510 ft | 479 kts | 298° |
| 2026-04-30 14:35 | 51.95249 | 7.38580 | 29832 ft | 478 kts | 298° |
| 2026-04-30 14:36 | 51.96668 | 7.33744 | 29206 ft | 472 kts | 297° |
| 2026-04-30 14:36 | 51.98071 | 7.28969 | 28597 ft | 466 kts | 297° |
| 2026-04-30 14:36 | 51.99452 | 7.24261 | 27985 ft | 462 kts | 297° |
| 2026-04-30 14:36 | 52.00827 | 7.19556 | 27376 ft | 458 kts | 297° |
| 2026-04-30 14:37 | 52.02186 | 7.14893 | 26770 ft | 457 kts | 297° |
| 2026-04-30 14:37 | 52.03453 | 7.10169 | 26158 ft | 456 kts | 293° |
| 2026-04-30 14:37 | 52.04519 | 7.05409 | 25563 ft | 453 kts | 291° |
| 2026-04-30 14:37 | 52.05590 | 7.00615 | 24968 ft | 451 kts | 293° |
| 2026-04-30 14:38 | 52.06764 | 6.95908 | 24376 ft | 448 kts | 295° |
| 2026-04-30 14:38 | 52.07942 | 6.91260 | 23760 ft | 443 kts | 294° |
| 2026-04-30 14:38 | 52.09047 | 6.86624 | 23164 ft | 437 kts | 292° |
| 2026-04-30 14:38 | 52.10115 | 6.82036 | 22593 ft | 431 kts | 292° |
| 2026-04-30 14:39 | 52.11199 | 6.77513 | 22030 ft | 428 kts | 293° |
| 2026-04-30 14:39 | 52.12295 | 6.73012 | 21465 ft | 428 kts | 293° |
| 2026-04-30 14:39 | 52.13012 | 6.70022 | 21093 ft | 428 kts | 292° |
| 2026-04-30 14:40 | 52.15492 | 6.59544 | 19785 ft | 424 kts | 292° |
| 2026-04-30 14:40 | 52.16554 | 6.55085 | 19230 ft | 421 kts | 292° |
| 2026-04-30 14:40 | 52.17607 | 6.50643 | 18666 ft | 419 kts | 292° |
| 2026-04-30 14:40 | 52.18298 | 6.47712 | 18275 ft | 417 kts | 292° |
| 2026-04-30 14:41 | 52.19666 | 6.41904 | 17546 ft | 412 kts | 292° |
| 2026-04-30 14:41 | 52.20702 | 6.37502 | 16995 ft | 409 kts | 292° |
| 2026-04-30 14:41 | 52.21375 | 6.34636 | 16637 ft | 407 kts | 292° |
| 2026-04-30 14:41 | 52.22385 | 6.30335 | 16103 ft | 405 kts | 292° |
| 2026-04-30 14:42 | 52.23383 | 6.26064 | 15570 ft | 404 kts | 292° |
| 2026-04-30 14:42 | 52.24166 | 6.21673 | 15004 ft | 403 kts | 277° |
| 2026-04-30 14:42 | 52.23945 | 6.17159 | 14439 ft | 398 kts | 254° |
| 2026-04-30 14:42 | 52.22694 | 6.11728 | 13735 ft | 375 kts | 243° |
| 2026-04-30 14:43 | 52.21960 | 6.09158 | 13358 ft | 365 kts | 242° |
| 2026-04-30 14:43 | 52.20983 | 6.05414 | 12805 ft | 354 kts | 247° |
| 2026-04-30 14:43 | 52.20258 | 6.01636 | 12332 ft | 343 kts | 252° |
| 2026-04-30 14:43 | 52.19621 | 5.97959 | 11950 ft | 331 kts | 250° |
| 2026-04-30 14:44 | 52.18924 | 5.94509 | 11574 ft | 321 kts | 247° |
| 2026-04-30 14:44 | 52.18195 | 5.91114 | 11201 ft | 315 kts | 248° |
| 2026-04-30 14:44 | 52.17507 | 5.87753 | 10836 ft | 311 kts | 248° |
| 2026-04-30 14:44 | 52.16839 | 5.84403 | 10479 ft | 311 kts | 248° |
| 2026-04-30 14:45 | 52.16170 | 5.81093 | 10116 ft | 311 kts | 248° |
| 2026-04-30 14:45 | 52.15479 | 5.77725 | 9720 ft | 311 kts | 248° |
| 2026-04-30 14:45 | 52.14797 | 5.74392 | 9334 ft | 309 kts | 248° |
| 2026-04-30 14:45 | 52.14122 | 5.71080 | 8965 ft | 306 kts | 248° |
| 2026-04-30 14:46 | 52.13454 | 5.67814 | 8584 ft | 302 kts | 248° |
| 2026-04-30 14:46 | 52.12792 | 5.64591 | 8208 ft | 299 kts | 248° |
| 2026-04-30 14:46 | 52.12135 | 5.61395 | 7826 ft | 297 kts | 248° |
| 2026-04-30 14:46 | 52.11481 | 5.58216 | 7466 ft | 296 kts | 247° |
| 2026-04-30 14:47 | 52.10835 | 5.55080 | 7352 ft | 288 kts | 247° |
| 2026-04-30 14:47 | 52.10198 | 5.51998 | 7349 ft | 289 kts | 247° |
| 2026-04-30 14:47 | 52.09558 | 5.48918 | 7348 ft | 294 kts | 247° |
| 2026-04-30 14:47 | 52.08901 | 5.45744 | 7344 ft | 298 kts | 247° |
| 2026-04-30 14:48 | 52.08237 | 5.42541 | 7350 ft | 300 kts | 247° |
| 2026-04-30 14:48 | 52.07570 | 5.39322 | 7349 ft | 300 kts | 247° |
| 2026-04-30 14:48 | 52.06910 | 5.36138 | 7342 ft | 295 kts | 247° |
| 2026-04-30 14:48 | 52.06254 | 5.32997 | 7337 ft | 293 kts | 246° |
| 2026-04-30 14:49 | 52.05598 | 5.29867 | 7337 ft | 293 kts | 246° |
| 2026-04-30 14:49 | 52.04942 | 5.26729 | 7330 ft | 294 kts | 247° |
| 2026-04-30 14:49 | 52.04283 | 5.23578 | 7335 ft | 295 kts | 246° |
| 2026-04-30 14:49 | 52.03620 | 5.20422 | 7336 ft | 296 kts | 246° |
| 2026-04-30 14:50 | 52.02300 | 5.14139 | 7333 ft | 295 kts | 246° |
| 2026-04-30 14:50 | 52.01637 | 5.10990 | 7334 ft | 294 kts | 246° |
| 2026-04-30 14:51 | 52.00295 | 5.04652 | 6937 ft | 301 kts | 246° |
| 2026-04-30 14:51 | 51.99624 | 5.01465 | 6619 ft | 296 kts | 246° |
| 2026-04-30 14:51 | 51.98309 | 4.95267 | 5945 ft | 286 kts | 246° |
| 2026-04-30 14:52 | 51.97662 | 4.92227 | 5616 ft | 284 kts | 246° |
| 2026-04-30 14:52 | 51.96375 | 4.86195 | 4971 ft | 282 kts | 246° |
| 2026-04-30 14:52 | 51.95738 | 4.83209 | 4641 ft | 280 kts | 245° |
| 2026-04-30 14:53 | 51.94476 | 4.77307 | 4317 ft | 271 kts | 245° |
| 2026-04-30 14:53 | 51.93848 | 4.74398 | 4314 ft | 276 kts | 245° |
| 2026-04-30 14:54 | 51.92588 | 4.68528 | 4324 ft | 271 kts | 245° |
| 2026-04-30 14:54 | 51.91363 | 4.62853 | 4315 ft | 268 kts | 244° |
| 2026-04-30 14:55 | 51.90221 | 4.57061 | 4321 ft | 273 kts | 251° |
| 2026-04-30 14:55 | 51.89791 | 4.54061 | 4323 ft | 273 kts | 252° |
| 2026-04-30 14:55 | 51.88619 | 4.48309 | 3940 ft | 266 kts | 243° |
| 2026-04-30 14:56 | 51.87299 | 4.42872 | 3427 ft | 254 kts | 241° |
| 2026-04-30 14:56 | 51.85902 | 4.37734 | 2997 ft | 242 kts | 240° |
| 2026-04-30 14:57 | 51.85130 | 4.35424 | 2988 ft | 225 kts | 232° |
| 2026-04-30 14:57 | 51.83454 | 4.31338 | 2986 ft | 219 kts | 230° |
| 2026-04-30 14:58 | 51.81742 | 4.27212 | 2985 ft | 223 kts | 230° |
| 2026-04-30 14:58 | 51.80877 | 4.25109 | 2991 ft | 227 kts | 230° |
| 2026-04-30 14:58 | 51.79295 | 4.20824 | 2953 ft | 217 kts | 252° |
| 2026-04-30 14:59 | 51.80424 | 4.16916 | 2969 ft | 198 kts | 343° |
| 2026-04-30 15:00 | 51.84148 | 4.18262 | 2608 ft | 183 kts | 30° |
| 2026-04-30 15:00 | 51.86030 | 4.20273 | 2282 ft | 146 kts | 53° |
| 2026-04-30 15:01 | 51.87191 | 4.22857 | 1989 ft | 144 kts | 62° |
| 2026-04-30 15:01 | 51.87749 | 4.24184 | 1973 ft | 139 kts | 63° |
| 2026-04-30 15:01 | 51.88817 | 4.26847 | 1971 ft | 137 kts | 63° |
| 2026-04-30 15:02 | 51.89333 | 4.28137 | 1967 ft | 138 kts | 63° |
| 2026-04-30 15:02 | 51.89876 | 4.29492 | 1945 ft | 147 kts | 64° |
| 2026-04-30 15:03 | 51.91543 | 4.33666 | 1375 ft | 146 kts | 65° |
| 2026-04-30 15:03 | 51.92516 | 4.36079 | 1021 ft | 111 kts | 68° |
| 2026-04-30 15:04 | 51.93329 | 4.38120 | 725 ft | 103 kts | 64° |
| 2026-04-30 15:04 | 51.94553 | 4.41194 | 306 ft | 109 kts | 64° |
| 2026-04-30 15:05 | 51.95691 | 4.44031 | -4 ft | 64 kts | 61° |
| 2026-04-30 15:06 | 51.95914 | 4.44629 | -7 ft | 12 kts | 85° |
| 2026-04-30 15:06 | 51.95787 | 4.44744 | -5 ft | 15 kts | 217° |
| 2026-04-30 15:07 | 51.95633 | 4.44379 | -5 ft | 26 kts | 237° |
| 2026-04-30 15:07 | 51.95416 | 4.43832 | -5 ft | 31 kts | 237° |
| 2026-04-30 15:08 | 51.95212 | 4.43547 | -5 ft | 17 kts | 147° |
| 2026-04-30 15:08 | 51.95073 | 4.43896 | -5 ft | 4 kts | 357° |